Time,TemperatureF,DewpointF,PressureIn,WindDirection,WindDirectionDegrees,WindSpeedMPH,WindSpeedGustMPH,Humidity,HourlyPrecipIn,Conditions,Clouds,dailyrainin,SoftwareType,DateUTC
2013-01-17 00:14:00,32.8,21.0,30.27,West,275,0.0,0.0,62,0.00,,,0.00,weatherlink.com 1.10,2013-01-17 06:14:00,
2013-01-17 00:29:00,34.4,22.0,30.27,West,275,0.0,0.0,60,0.00,,,0.00,weatherlink.com 1.10,2013-01-17 06:29:00,
2013-01-17 00:44:00,34.4,22.0,30.27,West,275,0.0,0.0,60,0.00,,,0.00,weatherlink.com 1.10,2013-01-17 06:44:00,
2013-01-17 00:59:00,33.4,21.0,30.28,West,275,0.0,0.0,61,0.00,,,0.00,weatherlink.com 1.10,2013-01-17 06:59:00,
2013-01-17 01:14:00,33.4,22.0,30.29,West,275,0.0,0.0,62,0.00,,,0.00,weatherlink.com 1.10,2013-01-17 07:14:00,
2013-01-17 01:29:00,32.9,22.0,30.29,West,275,0.0,0.0,64,0.00,,,0.00,weatherlink.com 1.10,2013-01-17 07:29:00,
2013-01-17 01:44:00,33.0,22.0,30.30,WSW,250,0.0,0.0,64,0.00,,,0.00,weatherlink.com 1.10,2013-01-17 07:44:00,
2013-01-17 01:59:00,32.4,22.0,30.30,WSW,250,0.0,0.0,65,0.00,,,0.00,weatherlink.com 1.10,2013-01-17 07:59:00,
2013-01-17 02:14:00,31.8,22.0,30.30,WSW,250,0.0,0.0,67,0.00,,,0.00,weatherlink.com 1.10,2013-01-17 08:14:00,
2013-01-17 02:29:00,31.4,22.0,30.31,WSW,249,0.0,0.0,68,0.00,,,0.00,weatherlink.com 1.10,2013-01-17 08:29:00,
2013-01-17 02:44:00,31.2,22.0,30.31,WSW,250,0.0,0.0,69,0.00,,,0.00,weatherlink.com 1.10,2013-01-17 08:44:00,
2013-01-17 02:59:00,30.3,22.0,30.31,WSW,250,0.0,0.0,70,0.00,,,0.00,weatherlink.com 1.10,2013-01-17 08:59:00,
2013-01-17 03:14:00,30.1,22.0,30.31,WSW,250,0.0,0.0,71,0.00,,,0.00,weatherlink.com 1.10,2013-01-17 09:14:00,
2013-01-17 03:29:00,30.0,22.0,30.31,WSW,250,0.0,0.0,72,0.00,,,0.00,weatherlink.com 1.10,2013-01-17 09:29:00,
2013-01-17 03:44:00,29.9,22.0,30.31,WSW,250,0.0,0.0,72,0.00,,,0.00,weatherlink.com 1.10,2013-01-17 09:44:00,
2013-01-17 03:59:00,29.8,22.0,30.32,WSW,250,0.0,0.0,74,0.00,,,0.00,weatherlink.com 1.10,2013-01-17 09:59:00,
2013-01-17 04:14:00,29.6,22.0,30.32,WSW,250,0.0,0.0,73,0.00,,,0.00,weatherlink.com 1.10,2013-01-17 10:14:00,
2013-01-17 04:29:00,29.6,22.0,30.32,WSW,250,0.0,0.0,74,0.00,,,0.00,weatherlink.com 1.10,2013-01-17 10:29:00,
2013-01-17 04:45:00,28.3,22.0,30.33,WSW,250,0.0,0.0,76,0.00,,,0.00,weatherlink.com 1.10,2013-01-17 10:45:00,
2013-01-17 05:00:00,28.6,23.0,30.33,WSW,250,0.0,0.0,80,0.00,,,0.00,weatherlink.com 1.10,2013-01-17 11:00:00,
2013-01-17 05:15:00,31.0,26.0,30.34,WSW,250,0.0,0.0,83,0.00,,,0.00,weatherlink.com 1.10,2013-01-17 11:15:00,
2013-01-17 05:30:00,33.4,28.0,30.34,WSW,250,0.0,0.0,79,0.00,,,0.00,weatherlink.com 1.10,2013-01-17 11:30:00,
2013-01-17 05:45:00,35.1,29.0,30.35,WSW,250,0.0,0.0,78,0.00,,,0.00,weatherlink.com 1.10,2013-01-17 11:45:00,
2013-01-17 06:00:00,36.8,30.0,30.35,NNW,347,7.0,8.0,75,0.00,,,0.00,weatherlink.com 1.10,2013-01-17 12:00:00,
2013-01-17 06:15:00,37.6,30.0,30.36,NNW,344,4.0,6.0,73,0.00,,,0.00,weatherlink.com 1.10,2013-01-17 12:15:00,
2013-01-17 06:30:00,37.7,30.0,30.37,North,351,2.0,6.0,73,0.00,,,0.00,weatherlink.com 1.10,2013-01-17 12:30:00,
2013-01-17 06:45:00,37.9,30.0,30.38,North,355,8.0,9.0,73,0.00,,,0.00,weatherlink.com 1.10,2013-01-17 12:45:00,
2013-01-17 07:00:00,37.8,30.0,30.39,North,355,5.0,9.0,73,0.00,,,0.00,weatherlink.com 1.10,2013-01-17 13:00:00,
2013-01-17 07:15:00,37.5,30.0,30.39,North,360,5.0,10.0,73,0.00,,,0.00,weatherlink.com 1.10,2013-01-17 13:15:00,
2013-01-17 07:30:00,37.3,29.0,30.40,NNW,346,4.0,11.0,73,0.00,,,0.00,weatherlink.com 1.10,2013-01-17 13:30:00,
2013-01-17 07:45:00,37.3,29.0,30.41,North,9,6.0,11.0,73,0.00,,,0.00,weatherlink.com 1.10,2013-01-17 13:45:00,
2013-01-17 08:00:00,37.5,30.0,30.42,NNE,17,9.0,13.0,73,0.00,,,0.00,weatherlink.com 1.10,2013-01-17 14:00:00,
2013-01-17 08:15:00,38.0,30.0,30.43,North,5,8.0,15.0,73,0.00,,,0.00,weatherlink.com 1.10,2013-01-17 14:15:00,
2013-01-17 08:30:00,38.7,30.0,30.43,NE,42,10.0,16.0,72,0.00,,,0.00,weatherlink.com 1.10,2013-01-17 14:30:00,
2013-01-17 08:45:00,39.6,31.0,30.44,NNE,25,11.0,15.0,71,0.00,,,0.00,weatherlink.com 1.10,2013-01-17 14:45:00,
2013-01-17 09:00:00,40.7,31.0,30.45,North,11,12.0,20.0,69,0.00,,,0.00,weatherlink.com 1.10,2013-01-17 15:00:00,
2013-01-17 09:15:00,41.6,32.0,30.46,NNE,26,9.0,16.0,68,0.00,,,0.00,weatherlink.com 1.10,2013-01-17 15:15:00,
2013-01-17 09:30:00,42.3,32.0,30.47,NE,53,6.0,18.0,67,0.00,,,0.00,weatherlink.com 1.10,2013-01-17 15:30:00,
2013-01-17 09:46:00,43.2,32.0,30.48,NNE,24,9.0,16.0,66,0.00,,,0.00,weatherlink.com 1.10,2013-01-17 15:46:00,
2013-01-17 10:01:00,44.0,32.0,30.49,NNE,29,15.0,17.0,64,0.00,,,0.00,weatherlink.com 1.10,2013-01-17 16:01:00,
2013-01-17 10:16:00,45.0,33.0,30.49,NE,55,9.0,18.0,62,0.00,,,0.00,weatherlink.com 1.10,2013-01-17 16:16:00,
2013-01-17 10:31:00,45.8,33.0,30.50,NE,34,7.0,16.0,61,0.00,,,0.00,weatherlink.com 1.10,2013-01-17 16:31:00,
2013-01-17 10:46:00,46.4,33.0,30.49,NE,40,7.0,17.0,59,0.00,,,0.00,weatherlink.com 1.10,2013-01-17 16:46:00,
2013-01-17 11:01:00,47.1,32.0,30.49,ENE,61,14.0,21.0,57,0.00,,,0.00,weatherlink.com 1.10,2013-01-17 17:01:00,
2013-01-17 11:16:00,47.6,33.0,30.49,NNW,346,10.0,17.0,57,0.00,,,0.00,weatherlink.com 1.10,2013-01-17 17:16:00,
2013-01-17 11:31:00,48.9,33.0,30.48,North,5,13.0,17.0,54,0.00,,,0.00,weatherlink.com 1.10,2013-01-17 17:31:00,
2013-01-17 11:46:00,49.5,33.0,30.48,NNE,32,9.0,19.0,53,0.00,,,0.00,weatherlink.com 1.10,2013-01-17 17:46:00,
2013-01-17 12:01:00,49.8,33.0,30.48,North,5,7.0,16.0,52,0.00,,,0.00,weatherlink.com 1.10,2013-01-17 18:01:00,
2013-01-17 12:16:00,51.5,33.0,30.47,North,355,7.0,17.0,49,0.00,,,0.00,weatherlink.com 1.10,2013-01-17 18:16:00,
2013-01-17 12:31:00,51.3,31.0,30.47,NNE,18,13.0,18.0,47,0.00,,,0.00,weatherlink.com 1.10,2013-01-17 18:31:00,
2013-01-17 12:46:00,51.8,31.0,30.47,NNW,347,10.0,18.0,46,0.00,,,0.00,weatherlink.com 1.10,2013-01-17 18:46:00,
2013-01-17 13:01:00,52.4,32.0,30.46,NNW,331,8.0,14.0,47,0.00,,,0.00,weatherlink.com 1.10,2013-01-17 19:01:00,
2013-01-17 13:16:00,53.0,32.0,30.45,North,10,7.0,14.0,45,0.00,,,0.00,weatherlink.com 1.10,2013-01-17 19:16:00,
2013-01-17 13:31:00,53.5,31.0,30.45,North,355,7.0,14.0,43,0.00,,,0.00,weatherlink.com 1.10,2013-01-17 19:31:00,
2013-01-17 13:46:00,53.6,31.0,30.45,NW,311,4.0,16.0,43,0.00,,,0.00,weatherlink.com 1.10,2013-01-17 19:46:00,
2013-01-17 14:01:00,54.3,31.0,30.44,NE,39,10.0,14.0,42,0.00,,,0.00,weatherlink.com 1.10,2013-01-17 20:01:00,
2013-01-17 14:16:00,54.5,31.0,30.45,North,351,7.0,14.0,41,0.00,,,0.00,weatherlink.com 1.10,2013-01-17 20:16:00,
2013-01-17 14:31:00,55.1,31.0,30.44,NNE,19,8.0,10.0,40,0.00,,,0.00,weatherlink.com 1.10,2013-01-17 20:31:00,
2013-01-17 14:46:00,55.1,31.0,30.44,NNW,338,9.0,12.0,40,0.00,,,0.00,weatherlink.com 1.10,2013-01-17 20:46:00,
2013-01-17 15:01:00,55.9,31.0,30.43,North,355,6.0,15.0,39,0.00,,,0.00,weatherlink.com 1.10,2013-01-17 21:01:00,
2013-01-17 15:16:00,56.3,31.0,30.43,North,5,11.0,14.0,39,0.00,,,0.00,weatherlink.com 1.10,2013-01-17 21:16:00,
2013-01-17 15:31:00,56.2,31.0,30.43,NE,46,6.0,12.0,38,0.00,,,0.00,weatherlink.com 1.10,2013-01-17 21:31:00,
2013-01-17 15:46:00,56.4,30.0,30.43,ENE,58,8.0,11.0,37,0.00,,,0.00,weatherlink.com 1.10,2013-01-17 21:46:00,
2013-01-17 16:01:00,56.8,30.0,30.44,NE,52,8.0,12.0,36,0.00,,,0.00,weatherlink.com 1.10,2013-01-17 22:01:00,
2013-01-17 16:16:00,56.8,30.0,30.44,NE,47,5.0,10.0,36,0.00,,,0.00,weatherlink.com 1.10,2013-01-17 22:16:00,
2013-01-17 16:31:00,56.7,30.0,30.44,NE,49,7.0,10.0,36,0.00,,,0.00,weatherlink.com 1.10,2013-01-17 22:31:00,
2013-01-17 16:46:00,56.6,30.0,30.45,NE,35,0.0,9.0,37,0.00,,,0.00,weatherlink.com 1.10,2013-01-17 22:46:00,
2013-01-17 17:01:00,56.3,30.0,30.45,NNE,21,5.0,9.0,37,0.00,,,0.00,weatherlink.com 1.10,2013-01-17 23:01:00,
2013-01-17 17:16:00,55.9,30.0,30.45,NNE,26,2.0,3.0,38,0.00,,,0.00,weatherlink.com 1.10,2013-01-17 23:16:00,
2013-01-17 17:31:00,55.0,30.0,30.45,NNE,32,1.0,4.0,38,0.00,,,0.00,weatherlink.com 1.10,2013-01-17 23:31:00,
2013-01-17 17:46:00,54.0,29.0,30.45,NNE,28,0.0,2.0,39,0.00,,,0.00,weatherlink.com 1.10,2013-01-17 23:46:00,
2013-01-17 18:01:00,53.2,29.0,30.45,NNE,28,0.0,0.0,39,0.00,,,0.00,weatherlink.com 1.10,2013-01-18 00:01:00,
2013-01-17 18:16:00,52.3,29.0,30.46,NNE,28,0.0,0.0,41,0.00,,,0.00,weatherlink.com 1.10,2013-01-18 00:16:00,
2013-01-17 18:31:00,51.0,28.0,30.46,NNE,28,0.0,0.0,42,0.00,,,0.00,weatherlink.com 1.10,2013-01-18 00:31:00,
2013-01-17 18:46:00,50.0,29.0,30.47,NNE,28,0.0,0.0,45,0.00,,,0.00,weatherlink.com 1.10,2013-01-18 00:46:00,
2013-01-17 19:01:00,48.4,28.0,30.47,NNE,28,0.0,0.0,46,0.00,,,0.00,weatherlink.com 1.10,2013-01-18 01:01:00,
2013-01-17 19:16:00,46.2,28.0,30.47,NNE,28,0.0,0.0,50,0.00,,,0.00,weatherlink.com 1.10,2013-01-18 01:16:00,
2013-01-17 19:31:00,44.7,28.0,30.47,NNE,28,0.0,0.0,53,0.00,,,0.00,weatherlink.com 1.10,2013-01-18 01:31:00,
2013-01-17 19:46:00,43.2,27.0,30.48,NNE,28,0.0,0.0,53,0.00,,,0.00,weatherlink.com 1.10,2013-01-18 01:46:00,
2013-01-17 20:02:00,41.5,28.0,30.48,NNE,28,0.0,0.0,58,0.00,,,0.00,weatherlink.com 1.10,2013-01-18 02:02:00,
2013-01-17 20:17:00,39.8,27.0,30.49,NNE,28,0.0,0.0,61,0.00,,,0.00,weatherlink.com 1.10,2013-01-18 02:17:00,
2013-01-17 20:32:00,38.8,27.0,30.49,NNE,28,0.0,0.0,64,0.00,,,0.00,weatherlink.com 1.10,2013-01-18 02:32:00,
2013-01-17 20:47:00,38.3,27.0,30.49,NNE,28,0.0,0.0,64,0.00,,,0.00,weatherlink.com 1.10,2013-01-18 02:47:00,
2013-01-17 21:02:00,37.6,27.0,30.49,NNE,28,0.0,0.0,65,0.00,,,0.00,weatherlink.com 1.10,2013-01-18 03:02:00,
2013-01-17 21:17:00,36.9,26.0,30.50,NNE,28,0.0,0.0,66,0.00,,,0.00,weatherlink.com 1.10,2013-01-18 03:17:00,
2013-01-17 21:32:00,36.1,27.0,30.50,NNE,28,0.0,0.0,69,0.00,,,0.00,weatherlink.com 1.10,2013-01-18 03:32:00,
2013-01-17 21:47:00,35.5,26.0,30.50,NNE,28,0.0,0.0,69,0.00,,,0.00,weatherlink.com 1.10,2013-01-18 03:47:00,
2013-01-17 22:02:00,34.8,26.0,30.51,NNE,28,0.0,0.0,69,0.00,,,0.00,weatherlink.com 1.10,2013-01-18 04:02:00,
2013-01-17 22:17:00,33.8,26.0,30.50,NNE,28,0.0,0.0,72,0.00,,,0.00,weatherlink.com 1.10,2013-01-18 04:17:00,
2013-01-17 22:32:00,33.1,26.0,30.50,NNE,28,0.0,0.0,75,0.00,,,0.00,weatherlink.com 1.10,2013-01-18 04:32:00,
2013-01-17 22:47:00,32.4,26.0,30.50,NNE,28,0.0,0.0,77,0.00,,,0.00,weatherlink.com 1.10,2013-01-18 04:47:00,
2013-01-17 23:02:00,31.8,25.0,30.50,NNE,28,0.0,0.0,77,0.00,,,0.00,weatherlink.com 1.10,2013-01-18 05:02:00,
2013-01-17 23:17:00,31.6,26.0,30.50,NNE,28,0.0,0.0,79,0.00,,,0.00,weatherlink.com 1.10,2013-01-18 05:17:00,
2013-01-17 23:32:00,31.2,26.0,30.50,NNE,28,0.0,0.0,80,0.00,,,0.00,weatherlink.com 1.10,2013-01-18 05:32:00,
2013-01-17 23:47:00,30.8,26.0,30.50,NNE,28,0.0,0.0,81,0.00,,,0.00,weatherlink.com 1.10,2013-01-18 05:47:00,